sensor_id;sensor_type;location;lat;lon;timestamp;temperature;humidity
72919;SHT30;68407;55.694;26.994;2023-07-29T00:00:35;16.5;84.3
72919;SHT30;68407;55.694;26.994;2023-07-29T00:05:32;16.4;84.5
72919;SHT30;68407;55.694;26.994;2023-07-29T00:10:48;16.3;84.7
72919;SHT30;68407;55.694;26.994;2023-07-29T00:15:53;16.3;84.9
72919;SHT30;68407;55.694;26.994;2023-07-29T00:21:00;16.3;84.9
72919;SHT30;68407;55.694;26.994;2023-07-29T00:25:38;16.3;85.2
72919;SHT30;68407;55.694;26.994;2023-07-29T00:30:20;16.3;85
72919;SHT30;68407;55.694;26.994;2023-07-29T00:35:32;16.3;85.1
72919;SHT30;68407;55.694;26.994;2023-07-29T00:41:00;16.3;85.2
72919;SHT30;68407;55.694;26.994;2023-07-29T00:45:46;16.2;85.4
72919;SHT30;68407;55.694;26.994;2023-07-29T00:50:50;16.3;85.4
72919;SHT30;68407;55.694;26.994;2023-07-29T00:56:02;16.2;85.4
72919;SHT30;68407;55.694;26.994;2023-07-29T01:00:48;16.1;85.8
72919;SHT30;68407;55.694;26.994;2023-07-29T01:06:05;16.2;85.6
72919;SHT30;68407;55.694;26.994;2023-07-29T01:10:24;16.2;85.6
72919;SHT30;68407;55.694;26.994;2023-07-29T01:16:03;16.2;85.8
72919;SHT30;68407;55.694;26.994;2023-07-29T01:21:03;16.1;85.9
72919;SHT30;68407;55.694;26.994;2023-07-29T01:26:00;16.1;85.9
72919;SHT30;68407;55.694;26.994;2023-07-29T01:31:03;16.1;86.1
72919;SHT30;68407;55.694;26.994;2023-07-29T01:35:48;16.1;86.2
72919;SHT30;68407;55.694;26.994;2023-07-29T01:40:58;16.2;86.1
72919;SHT30;68407;55.694;26.994;2023-07-29T01:45:26;16.2;86.1
72919;SHT30;68407;55.694;26.994;2023-07-29T01:51:00;16.3;85.6
72919;SHT30;68407;55.694;26.994;2023-07-29T01:55:46;16.3;85.6
72919;SHT30;68407;55.694;26.994;2023-07-29T02:00:20;16.2;85.9
72919;SHT30;68407;55.694;26.994;2023-07-29T02:06:02;16.2;86.1
72919;SHT30;68407;55.694;26.994;2023-07-29T02:10:46;16.2;86.4
72919;SHT30;68407;55.694;26.994;2023-07-29T02:15:20;16.2;86.4
72919;SHT30;68407;55.694;26.994;2023-07-29T02:20:20;16.3;86.3
72919;SHT30;68407;55.694;26.994;2023-07-29T02:25:46;16.3;86
72919;SHT30;68407;55.694;26.994;2023-07-29T02:30:46;16.4;86
72919;SHT30;68407;55.694;26.994;2023-07-29T02:35:48;16.4;86.2
72919;SHT30;68407;55.694;26.994;2023-07-29T02:41:02;16.3;86
72919;SHT30;68407;55.694;26.994;2023-07-29T02:45:20;16.4;86
72919;SHT30;68407;55.694;26.994;2023-07-29T02:50:46;16.3;86
72919;SHT30;68407;55.694;26.994;2023-07-29T02:55:28;16.4;86.2
72919;SHT30;68407;55.694;26.994;2023-07-29T03:00:36;16.4;86
72919;SHT30;68407;55.694;26.994;2023-07-29T03:05:56;16.4;86
72919;SHT30;68407;55.694;26.994;2023-07-29T03:11:04;16.4;86.2
72919;SHT30;68407;55.694;26.994;2023-07-29T03:15:22;16.4;86.5
72919;SHT30;68407;55.694;26.994;2023-07-29T03:20:38;16.3;86.7
72919;SHT30;68407;55.694;26.994;2023-07-29T03:26:02;16.4;86.7
72919;SHT30;68407;55.694;26.994;2023-07-29T03:30:32;16.2;86.6
72919;SHT30;68407;55.694;26.994;2023-07-29T03:35:34;16.1;87.1
72919;SHT30;68407;55.694;26.994;2023-07-29T03:40:20;16.2;86.8
72919;SHT30;68407;55.694;26.994;2023-07-29T03:45:52;16.3;86.4
72919;SHT30;68407;55.694;26.994;2023-07-29T03:50:20;16.5;86.1
72919;SHT30;68407;55.694;26.994;2023-07-29T03:55:38;16.6;85.9
72919;SHT30;68407;55.694;26.994;2023-07-29T04:01:02;16.6;85.9
72919;SHT30;68407;55.694;26.994;2023-07-29T04:05:52;16.6;86
72919;SHT30;68407;55.694;26.994;2023-07-29T04:10:36;16.4;86.3
72919;SHT30;68407;55.694;26.994;2023-07-29T04:15:38;16.2;87
72919;SHT30;68407;55.694;26.994;2023-07-29T04:21:02;16.2;87.4
72919;SHT30;68407;55.694;26.994;2023-07-29T04:25:20;16.1;87.3
72919;SHT30;68407;55.694;26.994;2023-07-29T04:30:32;16;86.7
72919;SHT30;68407;55.694;26.994;2023-07-29T04:35:48;16;87.1
72919;SHT30;68407;55.694;26.994;2023-07-29T04:40:22;16.2;87.2
72919;SHT30;68407;55.694;26.994;2023-07-29T04:46:02;16.3;86.9
72919;SHT30;68407;55.694;26.994;2023-07-29T04:50:38;16.3;86.9
72919;SHT30;68407;55.694;26.994;2023-07-29T04:55:24;16.2;86.9
72919;SHT30;68407;55.694;26.994;2023-07-29T05:00:24;16.2;86.9
72919;SHT30;68407;55.694;26.994;2023-07-29T05:06:02;16.2;86.9
72919;SHT30;68407;55.694;26.994;2023-07-29T05:10:48;16.3;87
72919;SHT30;68407;55.694;26.994;2023-07-29T05:15:52;16.4;87.2
72919;SHT30;68407;55.694;26.994;2023-07-29T05:21:02;16.5;86.9
72919;SHT30;68407;55.694;26.994;2023-07-29T05:25:52;16.6;86.3
72919;SHT30;68407;55.694;26.994;2023-07-29T05:30:22;16.6;86.1
72919;SHT30;68407;55.694;26.994;2023-07-29T05:35:20;16.8;85.5
72919;SHT30;68407;55.694;26.994;2023-07-29T05:41:02;16.9;85
72919;SHT30;68407;55.694;26.994;2023-07-29T05:45:56;17;85.3
72919;SHT30;68407;55.694;26.994;2023-07-29T05:51:02;17;85.8
72919;SHT30;68407;55.694;26.994;2023-07-29T05:56:02;17.2;85.3
72919;SHT30;68407;55.694;26.994;2023-07-29T06:00:48;17.4;84.8
72919;SHT30;68407;55.694;26.994;2023-07-29T06:05:41;17.4;83.3
72919;SHT30;68407;55.694;26.994;2023-07-29T06:10:22;17.1;84.4
72919;SHT30;68407;55.694;26.994;2023-07-29T06:16:02;16.9;85.2
72919;SHT30;68407;55.694;26.994;2023-07-29T06:20:44;17;85.1
72919;SHT30;68407;55.694;26.994;2023-07-29T06:25:49;17;85.3
72919;SHT30;68407;55.694;26.994;2023-07-29T06:31:02;17.2;85.1
72919;SHT30;68407;55.694;26.994;2023-07-29T06:35:36;17.5;84.4
72919;SHT30;68407;55.694;26.994;2023-07-29T06:40:28;17.8;83.9
72919;SHT30;68407;55.694;26.994;2023-07-29T06:45:28;18;83
72919;SHT30;68407;55.694;26.994;2023-07-29T06:50:20;18;83.1
72919;SHT30;68407;55.694;26.994;2023-07-29T06:55:34;18.3;83
72919;SHT30;68407;55.694;26.994;2023-07-29T07:00:46;18.5;81.9
72919;SHT30;68407;55.694;26.994;2023-07-29T07:05:58;19;81.5
72919;SHT30;68407;55.694;26.994;2023-07-29T07:10:48;19.6;79.5
72919;SHT30;68407;55.694;26.994;2023-07-29T07:15:44;20.5;77.3
72919;SHT30;68407;55.694;26.994;2023-07-29T07:20:20;20.4;76.3
72919;SHT30;68407;55.694;26.994;2023-07-29T07:25:20;19.8;76.6
72919;SHT30;68407;55.694;26.994;2023-07-29T07:30:52;19.5;76
72919;SHT30;68407;55.694;26.994;2023-07-29T07:35:54;19.5;76.2
72919;SHT30;68407;55.694;26.994;2023-07-29T07:40:52;20;76.6
72919;SHT30;68407;55.694;26.994;2023-07-29T07:45:38;20;76.1
72919;SHT30;68407;55.694;26.994;2023-07-29T07:51:00;20;75.2
72919;SHT30;68407;55.694;26.994;2023-07-29T07:55:28;20.1;74.6
72919;SHT30;68407;55.694;26.994;2023-07-29T08:00:30;19.8;74.6
72919;SHT30;68407;55.694;26.994;2023-07-29T08:05:20;19.8;74.2
72919;SHT30;68407;55.694;26.994;2023-07-29T08:10:50;20.4;73.8
72919;SHT30;68407;55.694;26.994;2023-07-29T08:15:24;20.8;72.3
72919;SHT30;68407;55.694;26.994;2023-07-29T08:20:34;20.7;71.8
72919;SHT30;68407;55.694;26.994;2023-07-29T08:26:01;20.6;71
72919;SHT30;68407;55.694;26.994;2023-07-29T08:30:40;20.7;71
72919;SHT30;68407;55.694;26.994;2023-07-29T08:35:34;21;70.4
72919;SHT30;68407;55.694;26.994;2023-07-29T08:40:23;21;69.6
72919;SHT30;68407;55.694;26.994;2023-07-29T08:46:00;20.7;70.1
72919;SHT30;68407;55.694;26.994;2023-07-29T08:50:24;20.7;68.9
72919;SHT30;68407;55.694;26.994;2023-07-29T08:55:24;21.1;66.2
72919;SHT30;68407;55.694;26.994;2023-07-29T09:00:44;21.9;66
72919;SHT30;68407;55.694;26.994;2023-07-29T09:05:50;22.1;65
72919;SHT30;68407;55.694;26.994;2023-07-29T09:11:00;22.3;64.7
72919;SHT30;68407;55.694;26.994;2023-07-29T09:15:27;22.5;64
72919;SHT30;68407;55.694;26.994;2023-07-29T09:20:23;22;64.7
72919;SHT30;68407;55.694;26.994;2023-07-29T09:25:22;22.6;63.7
72919;SHT30;68407;55.694;26.994;2023-07-29T09:31:00;22.9;62.6
72919;SHT30;68407;55.694;26.994;2023-07-29T09:35:48;22.7;62.8
72919;SHT30;68407;55.694;26.994;2023-07-29T09:40:48;22.6;62.9
72919;SHT30;68407;55.694;26.994;2023-07-29T09:46:00;22.9;61.4
72919;SHT30;68407;55.694;26.994;2023-07-29T09:50:40;23.1;59.5
72919;SHT30;68407;55.694;26.994;2023-07-29T09:55:21;23.2;59.1
72919;SHT30;68407;55.694;26.994;2023-07-29T10:00:36;23.4;60
72919;SHT30;68407;55.694;26.994;2023-07-29T10:06:00;23.6;59
72919;SHT30;68407;55.694;26.994;2023-07-29T10:11:00;23.4;59.6
72919;SHT30;68407;55.694;26.994;2023-07-29T10:15:50;22.6;60.2
72919;SHT30;68407;55.694;26.994;2023-07-29T10:20:56;22.4;61.4
72919;SHT30;68407;55.694;26.994;2023-07-29T10:25:36;23.1;60.2
72919;SHT30;68407;55.694;26.994;2023-07-29T10:30:24;22.8;59.5
72919;SHT30;68407;55.694;26.994;2023-07-29T10:35:48;23.2;59.1
72919;SHT30;68407;55.694;26.994;2023-07-29T10:41:00;24;57.2
72919;SHT30;68407;55.694;26.994;2023-07-29T10:45:44;24.6;55
72919;SHT30;68407;55.694;26.994;2023-07-29T10:50:34;25.2;54.1
72919;SHT30;68407;55.694;26.994;2023-07-29T10:56:01;24.9;55.3
72919;SHT30;68407;55.694;26.994;2023-07-29T11:00:20;24.4;53.8
72919;SHT30;68407;55.694;26.994;2023-07-29T11:05:24;23.9;54.9
72919;SHT30;68407;55.694;26.994;2023-07-29T11:10:20;23.4;56.1
72919;SHT30;68407;55.694;26.994;2023-07-29T11:15:44;23.8;56.7
72919;SHT30;68407;55.694;26.994;2023-07-29T11:20:34;23.7;55.1
72919;SHT30;68407;55.694;26.994;2023-07-29T11:25:48;23.6;57
72919;SHT30;68407;55.694;26.994;2023-07-29T11:30:49;23.6;56
72919;SHT30;68407;55.694;26.994;2023-07-29T11:35:20;23.7;55.4
72919;SHT30;68407;55.694;26.994;2023-07-29T11:40:20;24.1;54.4
72919;SHT30;68407;55.694;26.994;2023-07-29T11:45:20;24.5;54.1
72919;SHT30;68407;55.694;26.994;2023-07-29T11:50:32;25.3;53.2
72919;SHT30;68407;55.694;26.994;2023-07-29T11:56:00;25.6;52.1
72919;SHT30;68407;55.694;26.994;2023-07-29T12:01:00;25.4;50.3
72919;SHT30;68407;55.694;26.994;2023-07-29T12:05:20;25.5;51
72919;SHT30;68407;55.694;26.994;2023-07-29T12:10:20;25.5;49.9
72919;SHT30;68407;55.694;26.994;2023-07-29T12:15:44;25.5;50.5
72919;SHT30;68407;55.694;26.994;2023-07-29T12:20:20;25.8;49.5
72919;SHT30;68407;55.694;26.994;2023-07-29T12:25:30;25.5;48.9
72919;SHT30;68407;55.694;26.994;2023-07-29T12:30:52;24.7;50
72919;SHT30;68407;55.694;26.994;2023-07-29T12:36:00;24.1;51.6
72919;SHT30;68407;55.694;26.994;2023-07-29T12:40:20;24.3;52.1
72919;SHT30;68407;55.694;26.994;2023-07-29T12:45:20;25;51.1
72919;SHT30;68407;55.694;26.994;2023-07-29T12:51:00;25.4;49.6
72919;SHT30;68407;55.694;26.994;2023-07-29T12:55:20;24.7;49.7
72919;SHT30;68407;55.694;26.994;2023-07-29T13:00:34;24;50
72919;SHT30;68407;55.694;26.994;2023-07-29T13:05:44;24.6;50.2
72919;SHT30;68407;55.694;26.994;2023-07-29T13:10:50;25;49.7
72919;SHT30;68407;55.694;26.994;2023-07-29T13:15:24;25.1;50.6
72919;SHT30;68407;55.694;26.994;2023-07-29T13:20:20;25.4;49.7
72919;SHT30;68407;55.694;26.994;2023-07-29T13:25:58;25.7;51.2
72919;SHT30;68407;55.694;26.994;2023-07-29T13:30:40;25.7;49.6
72919;SHT30;68407;55.694;26.994;2023-07-29T13:35:30;25.7;50.8
72919;SHT30;68407;55.694;26.994;2023-07-29T13:40:38;26;50.5
72919;SHT30;68407;55.694;26.994;2023-07-29T13:45:50;25.6;51
72919;SHT30;68407;55.694;26.994;2023-07-29T13:50:20;25.3;51.4
72919;SHT30;68407;55.694;26.994;2023-07-29T13:55:24;25.8;49.9
72919;SHT30;68407;55.694;26.994;2023-07-29T14:00:48;26.1;49.6
72919;SHT30;68407;55.694;26.994;2023-07-29T14:05:30;26.6;48.2
72919;SHT30;68407;55.694;26.994;2023-07-29T14:10:58;26.5;48.2
72919;SHT30;68407;55.694;26.994;2023-07-29T14:15:38;26.2;48.7
72919;SHT30;68407;55.694;26.994;2023-07-29T14:20:21;26;49.2
72919;SHT30;68407;55.694;26.994;2023-07-29T14:25:20;26.7;49
72919;SHT30;68407;55.694;26.994;2023-07-29T14:31:00;27;47.9
72919;SHT30;68407;55.694;26.994;2023-07-29T14:36:00;26.9;48.6
72919;SHT30;68407;55.694;26.994;2023-07-29T14:41:00;27.1;48.9
72919;SHT30;68407;55.694;26.994;2023-07-29T14:46:00;27.2;48.3
72919;SHT30;68407;55.694;26.994;2023-07-29T14:50:40;27;48.6
72919;SHT30;68407;55.694;26.994;2023-07-29T14:55:20;27.3;48.4
72919;SHT30;68407;55.694;26.994;2023-07-29T15:00:40;27.3;46.9
72919;SHT30;68407;55.694;26.994;2023-07-29T15:05:58;27;47
72919;SHT30;68407;55.694;26.994;2023-07-29T15:10:44;27.3;46.9
72919;SHT30;68407;55.694;26.994;2023-07-29T15:15:20;27.1;46.5
72919;SHT30;68407;55.694;26.994;2023-07-29T15:20:58;26.7;46.1
72919;SHT30;68407;55.694;26.994;2023-07-29T15:25:32;25.8;47.7
72919;SHT30;68407;55.694;26.994;2023-07-29T15:30:42;25.3;48.3
72919;SHT30;68407;55.694;26.994;2023-07-29T15:35:30;24.7;49.6
72919;SHT30;68407;55.694;26.994;2023-07-29T15:40:42;25.1;50.6
72919;SHT30;68407;55.694;26.994;2023-07-29T15:45:30;24.9;52.3
72919;SHT30;68407;55.694;26.994;2023-07-29T15:50:46;24.4;54.2
72919;SHT30;68407;55.694;26.994;2023-07-29T15:55:58;24.1;55.9
72919;SHT30;68407;55.694;26.994;2023-07-29T16:00:22;24.3;55.5
72919;SHT30;68407;55.694;26.994;2023-07-29T16:05:20;24;56.6
72919;SHT30;68407;55.694;26.994;2023-07-29T16:10:20;23.7;57.6
72919;SHT30;68407;55.694;26.994;2023-07-29T16:15:34;24.5;56.3
72919;SHT30;68407;55.694;26.994;2023-07-29T16:20:42;25.1;54.6
72919;SHT30;68407;55.694;26.994;2023-07-29T16:25:58;25.2;53.7
72919;SHT30;68407;55.694;26.994;2023-07-29T16:30:34;25.1;53.7
72919;SHT30;68407;55.694;26.994;2023-07-29T16:35:24;25;54.3
72919;SHT30;68407;55.694;26.994;2023-07-29T16:40:42;24.6;54.9
72919;SHT30;68407;55.694;26.994;2023-07-29T16:45:48;23.8;56.1
72919;SHT30;68407;55.694;26.994;2023-07-29T16:50:20;24.1;56.1
72919;SHT30;68407;55.694;26.994;2023-07-29T16:55:50;24.7;54.7
72919;SHT30;68407;55.694;26.994;2023-07-29T17:01:00;24.9;54.1
72919;SHT30;68407;55.694;26.994;2023-07-29T17:05:26;24.8;54.5
72919;SHT30;68407;55.694;26.994;2023-07-29T17:10:24;24.2;56.1
72919;SHT30;68407;55.694;26.994;2023-07-29T17:16:00;24.2;56.4
72919;SHT30;68407;55.694;26.994;2023-07-29T17:20:28;24.3;56.6
72919;SHT30;68407;55.694;26.994;2023-07-29T17:25:34;24.1;57.3
72919;SHT30;68407;55.694;26.994;2023-07-29T17:30:38;24;58
72919;SHT30;68407;55.694;26.994;2023-07-29T17:35:48;23.4;59.2
72919;SHT30;68407;55.694;26.994;2023-07-29T17:40:26;22.8;60.8
72919;SHT30;68407;55.694;26.994;2023-07-29T17:45:24;22.5;61.9
72919;SHT30;68407;55.694;26.994;2023-07-29T17:50:58;22.1;62.6
72919;SHT30;68407;55.694;26.994;2023-07-29T17:55:50;21.8;63.7
72919;SHT30;68407;55.694;26.994;2023-07-29T18:00:20;21.4;64.9
72919;SHT30;68407;55.694;26.994;2023-07-29T18:05:20;20.9;66.5
72919;SHT30;68407;55.694;26.994;2023-07-29T18:10:48;20.5;68
72919;SHT30;68407;55.694;26.994;2023-07-29T18:15:24;20.2;69
72919;SHT30;68407;55.694;26.994;2023-07-29T18:21:00;19.8;70.8
72919;SHT30;68407;55.694;26.994;2023-07-29T18:25:48;19.5;72.4
72919;SHT30;68407;55.694;26.994;2023-07-29T18:30:50;19.1;73.7
72919;SHT30;68407;55.694;26.994;2023-07-29T18:36:00;18.8;74.4
72919;SHT30;68407;55.694;26.994;2023-07-29T18:40:48;18.5;75.4
72919;SHT30;68407;55.694;26.994;2023-07-29T18:45:20;18.2;76.3
72919;SHT30;68407;55.694;26.994;2023-07-29T18:50:20;17.9;77
72919;SHT30;68407;55.694;26.994;2023-07-29T18:56:00;17.7;77.5
72919;SHT30;68407;55.694;26.994;2023-07-29T19:01:00;17.7;77.9
72919;SHT30;68407;55.694;26.994;2023-07-29T19:06:02;17.6;78.2
72919;SHT30;68407;55.694;26.994;2023-07-29T19:11:00;17.5;78.4
72919;SHT30;68407;55.694;26.994;2023-07-29T19:15:49;17.4;78.8
72919;SHT30;68407;55.694;26.994;2023-07-29T19:20:20;17.3;79.4
72919;SHT30;68407;55.694;26.994;2023-07-29T19:25:46;17.1;79.7
72919;SHT30;68407;55.694;26.994;2023-07-29T19:31:00;17;80.1
72919;SHT30;68407;55.694;26.994;2023-07-29T19:35:44;16.9;80.2
72919;SHT30;68407;55.694;26.994;2023-07-29T19:40:34;16.8;80.5
72919;SHT30;68407;55.694;26.994;2023-07-29T19:46:00;16.7;80.7
72919;SHT30;68407;55.694;26.994;2023-07-29T19:50:20;16.5;81
72919;SHT30;68407;55.694;26.994;2023-07-29T19:55:20;16.5;81.3
72919;SHT30;68407;55.694;26.994;2023-07-29T20:00:32;16.3;81.5
72919;SHT30;68407;55.694;26.994;2023-07-29T20:06:02;16.3;81.7
72919;SHT30;68407;55.694;26.994;2023-07-29T20:10:34;16.3;81.6
72919;SHT30;68407;55.694;26.994;2023-07-29T20:15:22;16.2;81.5
72919;SHT30;68407;55.694;26.994;2023-07-29T20:20:38;16.1;81.8
72919;SHT30;68407;55.694;26.994;2023-07-29T20:25:24;16;82.1
72919;SHT30;68407;55.694;26.994;2023-07-29T20:30:24;15.9;81.9
72919;SHT30;68407;55.694;26.994;2023-07-29T20:35:20;15.7;82.4
72919;SHT30;68407;55.694;26.994;2023-07-29T20:40:36;15.7;82.9
72919;SHT30;68407;55.694;26.994;2023-07-29T20:45:38;15.7;83
72919;SHT30;68407;55.694;26.994;2023-07-29T20:51:02;15.7;82.8
72919;SHT30;68407;55.694;26.994;2023-07-29T20:55:38;15.6;82.8
72919;SHT30;68407;55.694;26.994;2023-07-29T21:00:34;15.5;83
72919;SHT30;68407;55.694;26.994;2023-07-29T21:05:46;15.4;83.2
72919;SHT30;68407;55.694;26.994;2023-07-29T21:11:02;15.4;83.4
72919;SHT30;68407;55.694;26.994;2023-07-29T21:15:20;15.5;83.1
72919;SHT30;68407;55.694;26.994;2023-07-29T21:20:52;15.5;82.9
72919;SHT30;68407;55.694;26.994;2023-07-29T21:25:49;15.6;82.5
72919;SHT30;68407;55.694;26.994;2023-07-29T21:30:32;15.7;82.1
72919;SHT30;68407;55.694;26.994;2023-07-29T21:35:24;15.8;81.8
72919;SHT30;68407;55.694;26.994;2023-07-29T21:40:48;15.9;81.7
72919;SHT30;68407;55.694;26.994;2023-07-29T21:45:28;15.8;81.8
72919;SHT30;68407;55.694;26.994;2023-07-29T21:50:34;15.7;82
72919;SHT30;68407;55.694;26.994;2023-07-29T21:55:38;15.7;82.1
72919;SHT30;68407;55.694;26.994;2023-07-29T22:00:52;15.7;82.1
72919;SHT30;68407;55.694;26.994;2023-07-29T22:05:20;15.6;82.3
72919;SHT30;68407;55.694;26.994;2023-07-29T22:10:32;15.5;82.4
72919;SHT30;68407;55.694;26.994;2023-07-29T22:15:48;15.3;82.9
72919;SHT30;68407;55.694;26.994;2023-07-29T22:20:53;15.2;83.4
72919;SHT30;68407;55.694;26.994;2023-07-29T22:26:00;15.1;83.8
72919;SHT30;68407;55.694;26.994;2023-07-29T22:30:20;15.1;83.9
72919;SHT30;68407;55.694;26.994;2023-07-29T22:35:34;14.9;84.2
72919;SHT30;68407;55.694;26.994;2023-07-29T22:40:32;14.8;83.7
72919;SHT30;68407;55.694;26.994;2023-07-29T22:46:02;14.6;84.3
72919;SHT30;68407;55.694;26.994;2023-07-29T22:50:34;14.4;84.5
72919;SHT30;68407;55.694;26.994;2023-07-29T22:55:50;14.3;84.8
72919;SHT30;68407;55.694;26.994;2023-07-29T23:00:53;14.2;85.1
72919;SHT30;68407;55.694;26.994;2023-07-29T23:06:02;14.2;85.2
72919;SHT30;68407;55.694;26.994;2023-07-29T23:10:24;14.1;85.2
72919;SHT30;68407;55.694;26.994;2023-07-29T23:15:33;13.9;84.5
72919;SHT30;68407;55.694;26.994;2023-07-29T23:21:02;13.8;84.3
72919;SHT30;68407;55.694;26.994;2023-07-29T23:26:02;13.7;84.5
72919;SHT30;68407;55.694;26.994;2023-07-29T23:31:00;13.6;85.2
72919;SHT30;68407;55.694;26.994;2023-07-29T23:36:00;13.6;85.6
72919;SHT30;68407;55.694;26.994;2023-07-29T23:40:30;13.5;85.5
72919;SHT30;68407;55.694;26.994;2023-07-29T23:45:46;13.5;85.5
72919;SHT30;68407;55.694;26.994;2023-07-29T23:50:48;13.4;85.8
72919;SHT30;68407;55.694;26.994;2023-07-29T23:56:02;13.4;85.3
